Castellet, Spain
Current Conditions -  °F | °C
As of 7:00 AM on Friday 31 Oct 2014 (Local Time) from LEBL Reporting Station
Haze Haze  
Wind Chill: 63°   Ceiling: Unl
Heat Index: 63°   Visibility: 2.5mi
Dew Point: 59°   Wind: 8mph
Humidity: 88%   Direction: 340°NNW
Pressure: 30.24"   Gusts: NA
Location:  41.26°N, 1.63°E
Report Text: LEBL 310600Z 34007KT 4000 BR SCT025 17/15 Q1024 NOSIG
Loading
Personal Weather Stations






























Interactive Weather Map
Tropical Storm Tracking
New forecast layout! Learn more

10-Day Weather Forecast

Advertisements
Track Severe Weather on mobile